Time,TemperatureF,DewpointF,PressureIn,WindDirection,WindDirectionDegrees,WindSpeedMPH,WindSpeedGustMPH,Humidity,HourlyPrecipIn,Conditions,Clouds,dailyrainin,SoftwareType,DateUTC
2013-03-12 00:00:00,31.1,28.8,30.22,ESE,121,0.0,0.0,91,0.00,,---,0.09,VWS V14.01,2013-03-12 06:00:00,
2013-03-12 00:05:00,31.1,28.8,30.21,ESE,121,0.0,0.0,91,0.00,,---,0.00,VWS V14.01,2013-03-12 06:05:00,
2013-03-12 00:10:00,31.1,28.8,30.22,ESE,121,0.0,0.0,91,0.00,,---,0.00,VWS V14.01,2013-03-12 06:10:00,
2013-03-12 00:15:00,31.1,28.8,30.22,ESE,121,0.0,0.0,91,0.00,,---,0.00,VWS V14.01,2013-03-12 06:15:00,
2013-03-12 00:20:00,31.1,28.8,30.22,ESE,121,0.0,0.0,91,0.00,,---,0.00,VWS V14.01,2013-03-12 06:20:00,
2013-03-12 00:25:00,31.1,28.8,30.22,ESE,121,0.0,0.0,91,0.00,,---,0.00,VWS V14.01,2013-03-12 06:25:00,
2013-03-12 00:30:00,31.1,29.0,30.22,ESE,121,0.0,0.0,92,0.00,,---,0.00,VWS V14.01,2013-03-12 06:30:00,
2013-03-12 00:35:00,31.2,29.1,30.22,ESE,121,0.0,0.0,92,0.00,,---,0.00,VWS V14.01,2013-03-12 06:35:00,
2013-03-12 00:40:00,31.2,29.1,30.22,ESE,121,0.0,0.0,92,0.00,,---,0.00,VWS V14.01,2013-03-12 06:40:00,
2013-03-12 00:45:00,31.2,29.1,30.22,ESE,121,0.0,0.0,92,0.00,,---,0.00,VWS V14.01,2013-03-12 06:45:00,
2013-03-12 00:50:00,31.2,29.1,30.22,ESE,121,0.0,0.0,92,0.00,,---,0.00,VWS V14.01,2013-03-12 06:50:00,
2013-03-12 00:55:00,31.1,29.0,30.22,ESE,121,0.0,0.0,92,0.00,,---,0.00,VWS V14.01,2013-03-12 06:55:00,
2013-03-12 01:00:00,31.0,29.0,30.22,ESE,121,0.0,0.0,92,0.00,,---,0.00,VWS V14.01,2013-03-12 07:00:00,
2013-03-12 01:05:00,31.0,29.0,30.22,ESE,121,0.0,0.0,92,0.00,,---,0.00,VWS V14.01,2013-03-12 07:05:00,
2013-03-12 01:10:00,31.0,29.0,30.22,ESE,121,0.0,0.0,92,0.00,,---,0.00,VWS V14.01,2013-03-12 07:10:00,
2013-03-12 01:15:00,30.9,28.9,30.22,ESE,121,0.0,0.0,92,0.00,,---,0.00,VWS V14.01,2013-03-12 07:15:00,
2013-03-12 01:20:00,31.0,29.0,30.22,ESE,121,0.0,0.0,92,0.00,,---,0.00,VWS V14.01,2013-03-12 07:20:00,
2013-03-12 01:25:00,31.0,29.0,30.23,ESE,121,0.0,0.0,92,0.00,,---,0.00,VWS V14.01,2013-03-12 07:25:00,
2013-03-12 01:30:00,31.0,29.0,30.23,ESE,121,0.0,0.0,92,0.00,,---,0.00,VWS V14.01,2013-03-12 07:30:00,
2013-03-12 01:35:00,31.1,29.3,30.23,ESE,121,0.0,0.0,93,0.00,,---,0.00,VWS V14.01,2013-03-12 07:35:00,
2013-03-12 01:40:00,31.1,29.3,30.23,ESE,121,0.0,0.0,93,0.00,,---,0.00,VWS V14.01,2013-03-12 07:40:00,
2013-03-12 01:45:00,31.1,29.3,30.23,ESE,121,0.0,0.0,93,0.00,,---,0.00,VWS V14.01,2013-03-12 07:45:00,
2013-03-12 01:50:00,31.1,29.3,30.23,ESE,121,0.0,0.0,93,0.00,,---,0.00,VWS V14.01,2013-03-12 07:50:00,
2013-03-12 01:55:00,31.1,29.3,30.24,ESE,121,0.0,0.0,93,0.00,,---,0.00,VWS V14.01,2013-03-12 07:55:00,
2013-03-12 02:00:00,31.1,29.3,30.24,ESE,121,0.0,0.0,93,0.00,,---,0.00,VWS V14.01,2013-03-12 08:00:00,
2013-03-12 02:05:00,31.1,29.3,30.24,ESE,121,0.0,0.0,93,0.00,,---,0.00,VWS V14.01,2013-03-12 08:05:00,
2013-03-12 02:10:00,31.2,29.4,30.24,ESE,121,0.0,0.0,93,0.00,,---,0.00,VWS V14.01,2013-03-12 08:10:00,
2013-03-12 02:15:00,31.2,29.4,30.24,ESE,121,0.0,0.0,93,0.00,,---,0.00,VWS V14.01,2013-03-12 08:15:00,
2013-03-12 02:20:00,31.1,29.3,30.25,ESE,121,0.0,0.0,93,0.00,,---,0.00,VWS V14.01,2013-03-12 08:20:00,
2013-03-12 02:24:00,31.1,29.3,30.25,ESE,121,0.0,0.0,93,0.00,,---,0.00,VWS V14.01,2013-03-12 08:24:00,
2013-03-12 02:29:00,31.1,29.3,30.24,ESE,121,0.0,0.0,93,0.00,,---,0.00,VWS V14.01,2013-03-12 08:29:00,
2013-03-12 02:34:00,31.2,29.4,30.25,ESE,121,0.0,0.0,93,0.00,,---,0.00,VWS V14.01,2013-03-12 08:34:00,
2013-03-12 02:39:00,31.2,29.4,30.24,ESE,121,0.0,0.0,93,0.00,,---,0.00,VWS V14.01,2013-03-12 08:39:00,
2013-03-12 02:44:00,31.1,29.3,30.25,ESE,121,0.0,0.0,93,0.00,,---,0.00,VWS V14.01,2013-03-12 08:44:00,
2013-03-12 02:49:00,31.2,29.4,30.24,ESE,121,0.0,0.0,93,0.00,,---,0.00,VWS V14.01,2013-03-12 08:49:00,
2013-03-12 02:54:00,31.2,29.4,30.25,ESE,121,0.0,0.0,93,0.00,,---,0.00,VWS V14.01,2013-03-12 08:54:00,
2013-03-12 02:59:00,31.2,29.4,30.25,ESE,121,0.0,0.0,93,0.00,,---,0.00,VWS V14.01,2013-03-12 08:59:00,
2013-03-12 03:04:00,30.7,28.7,30.25,ENE,67,0.0,0.0,92,0.00,,---,0.00,VWS V14.01,2013-03-12 09:04:00,
2013-03-12 03:09:00,30.1,28.1,30.25,ENE,64,0.0,0.0,92,0.00,,---,0.00,VWS V14.01,2013-03-12 09:09:00,
2013-03-12 03:14:00,29.8,27.8,30.25,NNE,19,0.0,0.0,92,0.00,,---,0.00,VWS V14.01,2013-03-12 09:14:00,
2013-03-12 03:19:00,29.4,27.4,30.25,NE,36,0.0,2.0,92,0.00,,---,0.00,VWS V14.01,2013-03-12 09:19:00,
2013-03-12 03:24:00,29.2,27.2,30.26,NE,41,0.0,0.0,92,0.00,,---,0.00,VWS V14.01,2013-03-12 09:24:00,
2013-03-12 03:29:00,29.0,27.0,30.26,NE,41,0.0,0.0,92,0.00,,---,0.00,VWS V14.01,2013-03-12 09:29:00,
2013-03-12 03:34:00,28.9,26.9,30.25,East,88,0.0,0.0,92,0.00,,---,0.00,VWS V14.01,2013-03-12 09:34:00,
2013-03-12 03:39:00,28.8,26.8,30.26,East,88,0.0,1.0,92,0.00,,---,0.00,VWS V14.01,2013-03-12 09:39:00,
2013-03-12 03:44:00,28.5,26.5,30.25,North,5,0.0,0.0,92,0.00,,---,0.00,VWS V14.01,2013-03-12 09:44:00,
2013-03-12 03:49:00,28.2,25.9,30.25,ENE,64,0.0,1.0,91,0.00,,---,0.00,VWS V14.01,2013-03-12 09:49:00,
2013-03-12 03:54:00,28.1,26.1,30.25,ENE,64,0.0,2.0,92,0.00,,---,0.00,VWS V14.01,2013-03-12 09:54:00,
2013-03-12 03:59:00,28.0,26.0,30.25,ENE,63,0.0,1.0,92,0.00,,---,0.00,VWS V14.01,2013-03-12 09:59:00,
2013-03-12 04:04:00,27.9,25.9,30.26,ENE,63,0.0,0.0,92,0.00,,---,0.00,VWS V14.01,2013-03-12 10:04:00,
2013-03-12 04:09:00,27.8,25.8,30.26,ENE,63,0.0,1.0,92,0.00,,---,0.00,VWS V14.01,2013-03-12 10:09:00,
2013-03-12 04:14:00,27.8,25.8,30.27,ENE,63,0.0,0.0,92,0.00,,---,0.00,VWS V14.01,2013-03-12 10:14:00,
2013-03-12 04:19:00,27.9,25.9,30.26,ENE,63,0.0,0.0,92,0.00,,---,0.00,VWS V14.01,2013-03-12 10:19:00,
2013-03-12 04:24:00,27.9,25.9,30.26,ENE,63,0.0,0.0,92,0.00,,---,0.00,VWS V14.01,2013-03-12 10:24:00,
2013-03-12 04:29:00,27.9,25.9,30.28,ENE,63,0.0,1.0,92,0.00,,---,0.00,VWS V14.01,2013-03-12 10:29:00,
2013-03-12 04:34:00,27.9,25.9,30.28,ENE,63,0.0,0.0,92,0.00,,---,0.00,VWS V14.01,2013-03-12 10:34:00,
2013-03-12 04:39:00,27.9,25.9,30.28,ENE,63,0.0,0.0,92,0.00,,---,0.00,VWS V14.01,2013-03-12 10:39:00,
2013-03-12 04:44:00,28.0,26.0,30.28,ENE,63,0.0,0.0,92,0.00,,---,0.00,VWS V14.01,2013-03-12 10:44:00,
2013-03-12 04:49:00,28.0,26.0,30.28,ENE,65,2.0,3.0,92,0.00,,---,0.00,VWS V14.01,2013-03-12 10:49:00,
2013-03-12 04:54:00,27.8,25.8,30.28,SE,129,0.0,0.0,92,0.00,,---,0.00,VWS V14.01,2013-03-12 10:54:00,
2013-03-12 04:59:00,27.6,25.3,30.29,ENE,78,0.0,0.0,91,0.00,,---,0.00,VWS V14.01,2013-03-12 10:59:00,
2013-03-12 05:04:00,27.3,25.0,30.30,ENE,75,0.0,2.0,91,0.00,,---,0.00,VWS V14.01,2013-03-12 11:04:00,
2013-03-12 05:09:00,27.1,24.8,30.30,ENE,76,0.0,2.0,91,0.00,,---,0.00,VWS V14.01,2013-03-12 11:09:00,
2013-03-12 05:14:00,27.1,24.8,30.30,ENE,76,0.0,0.0,91,0.00,,---,0.00,VWS V14.01,2013-03-12 11:14:00,
2013-03-12 05:19:00,27.1,24.8,30.30,ENE,76,0.0,0.0,91,0.00,,---,0.00,VWS V14.01,2013-03-12 11:19:00,
2013-03-12 05:24:00,27.0,24.7,30.30,ENE,71,0.0,0.0,91,0.00,,---,0.00,VWS V14.01,2013-03-12 11:24:00,
2013-03-12 05:29:00,27.0,24.7,30.30,ENE,71,0.0,1.0,91,0.00,,---,0.00,VWS V14.01,2013-03-12 11:29:00,
2013-03-12 05:34:00,27.0,24.7,30.31,ENE,71,0.0,1.0,91,0.00,,---,0.00,VWS V14.01,2013-03-12 11:34:00,
2013-03-12 05:39:00,26.9,24.6,30.30,ENE,71,0.0,0.0,91,0.00,,---,0.00,VWS V14.01,2013-03-12 11:39:00,
2013-03-12 05:44:00,26.9,24.6,30.31,ENE,71,0.0,0.0,91,0.00,,---,0.00,VWS V14.01,2013-03-12 11:44:00,
2013-03-12 05:49:00,26.9,24.6,30.31,ENE,71,0.0,0.0,91,0.00,,---,0.00,VWS V14.01,2013-03-12 11:49:00,
2013-03-12 05:54:00,26.9,24.6,30.31,ENE,71,0.0,0.0,91,0.00,,---,0.00,VWS V14.01,2013-03-12 11:54:00,
2013-03-12 05:59:00,26.9,24.6,30.31,ENE,71,0.0,0.0,91,0.00,,---,0.00,VWS V14.01,2013-03-12 11:59:00,
2013-03-12 06:04:00,26.9,24.6,30.31,ENE,71,0.0,0.0,91,0.00,,---,0.00,VWS V14.01,2013-03-12 12:04:00,
2013-03-12 06:09:00,26.9,24.6,30.31,ENE,71,0.0,0.0,91,0.00,,---,0.00,VWS V14.01,2013-03-12 12:09:00,
2013-03-12 06:14:00,26.9,24.6,30.31,ENE,71,0.0,0.0,91,0.00,,---,0.00,VWS V14.01,2013-03-12 12:14:00,
2013-03-12 06:19:00,27.0,24.7,30.32,ENE,71,0.0,0.0,91,0.00,,---,0.00,VWS V14.01,2013-03-12 12:19:00,
2013-03-12 06:24:00,27.0,24.7,30.32,ENE,71,0.0,0.0,91,0.00,,---,0.00,VWS V14.01,2013-03-12 12:24:00,
2013-03-12 06:29:00,27.0,25.0,30.32,ENE,71,0.0,0.0,92,0.00,,---,0.00,VWS V14.01,2013-03-12 12:29:00,
2013-03-12 06:34:00,27.0,24.7,30.32,ENE,71,0.0,0.0,91,0.00,,---,0.00,VWS V14.01,2013-03-12 12:34:00,
2013-03-12 06:39:00,27.0,25.0,30.32,ENE,71,0.0,0.0,92,0.00,,---,0.00,VWS V14.01,2013-03-12 12:39:00,
2013-03-12 06:44:00,27.0,25.0,30.32,ENE,71,0.0,0.0,92,0.00,,---,0.00,VWS V14.01,2013-03-12 12:44:00,
2013-03-12 06:49:00,27.0,24.7,30.32,ENE,71,0.0,0.0,91,0.00,,---,0.00,VWS V14.01,2013-03-12 12:49:00,
2013-03-12 06:54:00,27.0,24.7,30.33,ENE,71,0.0,0.0,91,0.00,,---,0.00,VWS V14.01,2013-03-12 12:54:00,
2013-03-12 06:59:00,27.0,24.7,30.33,ENE,71,0.0,0.0,91,0.00,,---,0.00,VWS V14.01,2013-03-12 12:59:00,
2013-03-12 07:04:00,27.0,24.7,30.33,ENE,71,0.0,0.0,91,0.00,,---,0.00,VWS V14.01,2013-03-12 13:04:00,
2013-03-12 07:09:00,27.0,24.7,30.33,ENE,71,0.0,0.0,91,0.00,,---,0.00,VWS V14.01,2013-03-12 13:09:00,
2013-03-12 07:14:00,27.0,24.7,30.33,ENE,71,0.0,0.0,91,0.00,,---,0.00,VWS V14.01,2013-03-12 13:14:00,
2013-03-12 07:19:00,27.0,24.7,30.34,ENE,71,0.0,0.0,91,0.00,,---,0.00,VWS V14.01,2013-03-12 13:19:00,
2013-03-12 07:24:00,27.0,24.7,30.33,ENE,71,0.0,0.0,91,0.00,,---,0.00,VWS V14.01,2013-03-12 13:24:00,
2013-03-12 07:29:00,27.0,24.7,30.34,ENE,71,0.0,0.0,91,0.00,,---,0.00,VWS V14.01,2013-03-12 13:29:00,
2013-03-12 07:34:00,27.0,24.7,30.34,ENE,71,0.0,0.0,91,0.00,,---,0.00,VWS V14.01,2013-03-12 13:34:00,
2013-03-12 07:39:00,27.0,24.7,30.34,ENE,71,0.0,0.0,91,0.00,,---,0.00,VWS V14.01,2013-03-12 13:39:00,
2013-03-12 07:44:00,27.1,25.1,30.34,ENE,71,0.0,0.0,92,0.00,,---,0.00,VWS V14.01,2013-03-12 13:44:00,
2013-03-12 07:49:00,26.4,23.3,30.34,NNE,25,1.0,2.0,88,0.00,,---,0.00,VWS V14.01,2013-03-12 13:49:00,
2013-03-12 07:54:00,25.8,22.5,30.35,NE,51,0.0,0.0,87,0.00,,---,0.00,VWS V14.01,2013-03-12 13:54:00,
2013-03-12 07:59:00,25.3,22.0,30.35,East,88,2.0,4.0,87,0.00,,---,0.00,VWS V14.01,2013-03-12 13:59:00,
2013-03-12 08:04:00,25.0,21.7,30.35,NE,52,0.0,2.0,87,0.00,,---,0.00,VWS V14.01,2013-03-12 14:04:00,
2013-03-12 08:09:00,24.9,21.6,30.35,ENE,58,1.0,3.0,87,0.00,,---,0.00,VWS V14.01,2013-03-12 14:09:00,
2013-03-12 08:14:00,24.9,21.9,30.36,ENE,57,0.0,0.0,88,0.00,,---,0.00,VWS V14.01,2013-03-12 14:14:00,
2013-03-12 08:19:00,25.0,22.0,30.36,East,80,2.0,2.0,88,0.00,,---,0.00,VWS V14.01,2013-03-12 14:19:00,
2013-03-12 08:24:00,25.0,21.7,30.37,East,81,0.0,3.0,87,0.00,,---,0.00,VWS V14.01,2013-03-12 14:24:00,
2013-03-12 08:29:00,25.1,22.0,30.37,East,80,0.0,1.0,88,0.00,,---,0.00,VWS V14.01,2013-03-12 14:29:00,
2013-03-12 08:34:00,25.1,22.0,30.37,East,79,2.0,3.0,88,0.00,,---,0.00,VWS V14.01,2013-03-12 14:34:00,
2013-03-12 08:39:00,25.1,21.8,30.37,East,79,1.0,4.0,87,0.00,,---,0.00,VWS V14.01,2013-03-12 14:39:00,
2013-03-12 08:44:00,25.2,21.9,30.37,East,79,1.0,2.0,87,0.00,,---,0.00,VWS V14.01,2013-03-12 14:44:00,
2013-03-12 08:49:00,25.1,21.5,30.38,East,86,0.0,0.0,86,0.00,,---,0.00,VWS V14.01,2013-03-12 14:49:00,
2013-03-12 08:54:00,25.1,21.5,30.38,East,99,3.0,4.0,86,0.00,,---,0.00,VWS V14.01,2013-03-12 14:54:00,
2013-03-12 08:59:00,25.1,21.5,30.38,East,86,0.0,0.0,86,0.00,,---,0.00,VWS V14.01,2013-03-12 14:59:00,
2013-03-12 09:04:00,25.2,21.3,30.38,East,88,0.0,2.0,85,0.00,,---,0.00,VWS V14.01,2013-03-12 15:04:00,
2013-03-12 09:09:00,25.3,21.4,30.38,East,88,1.0,2.0,85,0.00,,---,0.00,VWS V14.01,2013-03-12 15:09:00,
2013-03-12 09:14:00,25.5,21.6,30.38,East,84,0.0,1.0,85,0.00,,---,0.00,VWS V14.01,2013-03-12 15:14:00,
2013-03-12 09:19:00,25.7,21.8,30.39,East,84,0.0,0.0,85,0.00,,---,0.00,VWS V14.01,2013-03-12 15:19:00,
2013-03-12 09:24:00,25.9,21.7,30.39,East,84,0.0,0.0,84,0.00,,---,0.00,VWS V14.01,2013-03-12 15:24:00,
2013-03-12 09:29:00,26.0,21.8,30.39,East,84,2.0,2.0,84,0.00,,---,0.00,VWS V14.01,2013-03-12 15:29:00,
2013-03-12 09:34:00,26.1,21.9,30.39,East,84,1.0,1.0,84,0.00,,---,0.00,VWS V14.01,2013-03-12 15:34:00,
2013-03-12 09:39:00,26.2,21.8,30.40,East,83,0.0,0.0,83,0.00,,---,0.00,VWS V14.01,2013-03-12 15:39:00,
2013-03-12 09:44:00,26.3,21.9,30.39,East,84,0.0,0.0,83,0.00,,---,0.00,VWS V14.01,2013-03-12 15:44:00,
2013-03-12 09:49:00,26.5,22.0,30.39,East,84,0.0,2.0,83,0.00,,---,0.00,VWS V14.01,2013-03-12 15:49:00,
2013-03-12 09:54:00,26.6,21.9,30.39,East,84,0.0,2.0,82,0.00,,---,0.00,VWS V14.01,2013-03-12 15:54:00,
2013-03-12 09:59:00,26.7,21.7,30.40,East,84,0.0,1.0,81,0.00,,---,0.00,VWS V14.01,2013-03-12 15:59:00,
2013-03-12 10:04:00,26.9,21.9,30.39,NE,53,2.0,4.0,81,0.00,,---,0.00,VWS V14.01,2013-03-12 16:04:00,
2013-03-12 10:09:00,26.8,21.5,30.39,ESE,105,0.0,0.0,80,0.00,,---,0.00,VWS V14.01,2013-03-12 16:09:00,
2013-03-12 10:14:00,26.9,21.9,30.40,NE,51,0.0,0.0,81,0.00,,---,0.00,VWS V14.01,2013-03-12 16:14:00,
2013-03-12 10:19:00,27.1,21.8,30.39,SE,128,0.0,0.0,80,0.00,,---,0.00,VWS V14.01,2013-03-12 16:19:00,
2013-03-12 10:24:00,27.1,21.5,30.40,ESE,107,0.0,0.0,79,0.00,,---,0.00,VWS V14.01,2013-03-12 16:24:00,
2013-03-12 10:29:00,27.0,21.4,30.40,ESE,105,0.0,0.0,79,0.00,,---,0.00,VWS V14.01,2013-03-12 16:29:00,
2013-03-12 10:34:00,27.0,21.7,30.41,ESE,104,0.0,0.0,80,0.00,,---,0.00,VWS V14.01,2013-03-12 16:34:00,
2013-03-12 10:39:00,27.1,21.8,30.41,ESE,103,0.0,0.0,80,0.00,,---,0.00,VWS V14.01,2013-03-12 16:39:00,
2013-03-12 10:44:00,27.2,21.9,30.41,East,94,0.0,0.0,80,0.00,,---,0.00,VWS V14.01,2013-03-12 16:44:00,
2013-03-12 10:49:00,27.4,21.8,30.41,East,92,0.0,1.0,79,0.00,,---,0.00,VWS V14.01,2013-03-12 16:49:00,
2013-03-12 10:54:00,27.5,21.9,30.41,ESE,109,2.0,2.0,79,0.00,,---,0.00,VWS V14.01,2013-03-12 16:54:00,
2013-03-12 10:59:00,27.6,21.6,30.41,East,82,1.0,2.0,78,0.00,,---,0.00,VWS V14.01,2013-03-12 16:59:00,
2013-03-12 11:04:00,27.4,20.8,30.41,ENE,67,0.0,2.0,76,0.00,,---,0.00,VWS V14.01,2013-03-12 17:04:00,
2013-03-12 11:09:00,27.3,21.4,30.41,ENE,68,0.0,1.0,78,0.00,,---,0.00,VWS V14.01,2013-03-12 17:09:00,
2013-03-12 11:14:00,27.4,21.8,30.41,East,81,0.0,0.0,79,0.00,,---,0.00,VWS V14.01,2013-03-12 17:14:00,
2013-03-12 11:19:00,27.5,20.9,30.41,ENE,68,2.0,2.0,76,0.00,,---,0.00,VWS V14.01,2013-03-12 17:19:00,
2013-03-12 11:24:00,27.6,21.6,30.41,ESE,111,2.0,4.0,78,0.00,,---,0.00,VWS V14.01,2013-03-12 17:24:00,
2013-03-12 11:29:00,27.6,21.4,30.40,East,84,0.0,1.0,77,0.00,,---,0.00,VWS V14.01,2013-03-12 17:29:00,
2013-03-12 11:34:00,27.7,21.1,30.40,East,84,0.0,0.0,76,0.00,,---,0.00,VWS V14.01,2013-03-12 17:34:00,
2013-03-12 11:39:00,27.7,21.1,30.40,ENE,68,1.0,2.0,76,0.00,,---,0.00,VWS V14.01,2013-03-12 17:39:00,
2013-03-12 11:44:00,27.7,21.4,30.40,East,81,4.0,4.0,77,0.00,,---,0.00,VWS V14.01,2013-03-12 17:44:00,
2013-03-12 11:49:00,27.6,21.4,30.41,East,87,3.0,3.0,77,0.00,,---,0.00,VWS V14.01,2013-03-12 17:49:00,
2013-03-12 11:54:00,27.7,21.4,30.41,ESE,102,0.0,0.0,77,0.00,,---,0.00,VWS V14.01,2013-03-12 17:54:00,
2013-03-12 11:59:00,28.0,21.7,30.41,East,90,0.0,0.0,77,0.00,,---,0.00,VWS V14.01,2013-03-12 17:59:00,
2013-03-12 12:04:00,28.2,21.9,30.41,ENE,72,0.0,3.0,77,0.00,,---,0.00,VWS V14.01,2013-03-12 18:04:00,
2013-03-12 12:09:00,28.4,22.4,30.42,ENE,68,1.0,4.0,78,0.00,,---,0.00,VWS V14.01,2013-03-12 18:09:00,
2013-03-12 12:14:00,28.2,21.6,30.41,ENE,74,2.0,3.0,76,0.00,,---,0.00,VWS V14.01,2013-03-12 18:14:00,
2013-03-12 12:19:00,28.2,21.9,30.41,SSE,149,0.0,0.0,77,0.00,,---,0.00,VWS V14.01,2013-03-12 18:19:00,
2013-03-12 12:24:00,28.4,21.5,30.41,ESE,113,1.0,1.0,75,0.00,,---,0.00,VWS V14.01,2013-03-12 18:24:00,
2013-03-12 12:29:00,28.5,21.9,30.41,ENE,76,2.0,2.0,76,0.00,,---,0.00,VWS V14.01,2013-03-12 18:29:00,
2013-03-12 12:34:00,28.9,22.0,30.41,East,90,0.0,3.0,75,0.00,,---,0.00,VWS V14.01,2013-03-12 18:34:00,
2013-03-12 12:39:00,29.1,22.5,30.41,ENE,76,0.0,0.0,76,0.00,,---,0.00,VWS V14.01,2013-03-12 18:39:00,
2013-03-12 12:44:00,29.6,22.7,30.41,ENE,77,3.0,3.0,75,0.00,,---,0.00,VWS V14.01,2013-03-12 18:44:00,
2013-03-12 12:49:00,29.8,22.9,30.41,East,90,3.0,3.0,75,0.01,,---,0.01,VWS V14.01,2013-03-12 18:49:00,
2013-03-12 12:54:00,30.0,22.4,30.41,ENE,75,1.0,1.0,73,0.01,,---,0.01,VWS V14.01,2013-03-12 18:54:00,
2013-03-12 12:59:00,30.2,23.2,30.41,ESE,110,1.0,1.0,75,0.01,,---,0.01,VWS V14.01,2013-03-12 18:59:00,
2013-03-12 13:04:00,30.6,23.6,30.41,East,98,3.0,3.0,75,0.01,,---,0.01,VWS V14.01,2013-03-12 19:04:00,
2013-03-12 13:09:00,31.0,23.7,30.40,East,95,1.0,2.0,74,0.01,,---,0.01,VWS V14.01,2013-03-12 19:09:00,
2013-03-12 13:14:00,31.0,23.7,30.41,East,96,0.0,0.0,74,0.01,,---,0.01,VWS V14.01,2013-03-12 19:14:00,
2013-03-12 13:19:00,31.4,24.4,30.41,SE,125,1.0,1.0,75,0.01,,---,0.01,VWS V14.01,2013-03-12 19:19:00,
2013-03-12 13:24:00,31.7,23.7,30.41,SE,134,0.0,1.0,72,0.01,,---,0.01,VWS V14.01,2013-03-12 19:24:00,
2013-03-12 13:29:00,32.0,24.0,30.40,ESE,115,1.0,1.0,72,0.01,,---,0.01,VWS V14.01,2013-03-12 19:29:00,
2013-03-12 13:34:00,32.5,24.5,30.39,East,86,0.0,3.0,72,0.01,,---,0.01,VWS V14.01,2013-03-12 19:34:00,
2013-03-12 13:39:00,32.3,24.0,30.39,East,97,0.0,0.0,71,0.01,,---,0.01,VWS V14.01,2013-03-12 19:39:00,
2013-03-12 13:44:00,32.4,24.4,30.39,SSE,155,0.0,1.0,72,0.01,,---,0.01,VWS V14.01,2013-03-12 19:44:00,
2013-03-12 13:49:00,32.6,24.2,30.39,ENE,76,0.0,2.0,71,0.00,,---,0.01,VWS V14.01,2013-03-12 19:49:00,
2013-03-12 13:54:00,33.0,25.3,30.39,SSW,211,2.0,3.0,73,0.00,,---,0.01,VWS V14.01,2013-03-12 19:54:00,
2013-03-12 13:59:00,33.0,24.6,30.39,ESE,115,0.0,0.0,71,0.00,,---,0.01,VWS V14.01,2013-03-12 19:59:00,
2013-03-12 14:04:00,32.9,24.2,30.39,East,92,0.0,1.0,70,0.00,,---,0.01,VWS V14.01,2013-03-12 20:04:00,
2013-03-12 14:09:00,32.8,24.1,30.38,East,93,0.0,0.0,70,0.00,,---,0.01,VWS V14.01,2013-03-12 20:09:00,
2013-03-12 14:14:00,33.3,25.3,30.38,SSW,192,4.0,5.0,72,0.00,,---,0.01,VWS V14.01,2013-03-12 20:14:00,
2013-03-12 14:19:00,33.5,25.1,30.38,South,172,0.0,1.0,71,0.00,,---,0.01,VWS V14.01,2013-03-12 20:19:00,
2013-03-12 14:24:00,33.9,25.5,30.38,South,169,0.0,0.0,71,0.00,,---,0.01,VWS V14.01,2013-03-12 20:24:00,
2013-03-12 14:29:00,34.4,25.6,30.38,SW,227,1.0,3.0,70,0.00,,---,0.01,VWS V14.01,2013-03-12 20:29:00,
2013-03-12 14:34:00,34.4,25.3,30.38,SSE,157,0.0,1.0,69,0.00,,---,0.01,VWS V14.01,2013-03-12 20:34:00,
2013-03-12 14:39:00,34.7,25.6,30.38,SE,141,2.0,2.0,69,0.01,,---,0.02,VWS V14.01,2013-03-12 20:39:00,
2013-03-12 14:44:00,34.9,26.8,30.38,SE,142,0.0,0.0,72,0.01,,---,0.02,VWS V14.01,2013-03-12 20:44:00,
2013-03-12 14:49:00,35.1,25.6,30.38,East,90,0.0,0.0,68,0.01,,---,0.02,VWS V14.01,2013-03-12 20:49:00,
2013-03-12 14:54:00,35.4,26.6,30.37,East,90,0.0,0.0,70,0.01,,---,0.02,VWS V14.01,2013-03-12 20:54:00,
2013-03-12 14:59:00,35.7,26.5,30.37,East,94,0.0,0.0,69,0.01,,---,0.02,VWS V14.01,2013-03-12 20:59:00,
2013-03-12 15:04:00,36.0,27.5,30.37,East,94,0.0,0.0,71,0.01,,---,0.02,VWS V14.01,2013-03-12 21:04:00,
2013-03-12 15:09:00,36.4,26.9,30.36,East,88,0.0,1.0,68,0.01,,---,0.02,VWS V14.01,2013-03-12 21:09:00,
2013-03-12 15:14:00,36.8,27.6,30.36,East,99,1.0,2.0,69,0.01,,---,0.02,VWS V14.01,2013-03-12 21:14:00,
2013-03-12 15:19:00,36.7,26.4,30.37,East,79,0.0,0.0,66,0.01,,---,0.02,VWS V14.01,2013-03-12 21:19:00,
2013-03-12 15:24:00,36.6,26.3,30.37,East,86,1.0,1.0,66,0.01,,---,0.02,VWS V14.01,2013-03-12 21:24:00,
2013-03-12 15:29:00,36.6,27.4,30.36,East,95,1.0,2.0,69,0.01,,---,0.02,VWS V14.01,2013-03-12 21:29:00,
2013-03-12 15:34:00,36.9,27.3,30.35,East,96,0.0,0.0,68,0.01,,---,0.02,VWS V14.01,2013-03-12 21:34:00,
2013-03-12 15:39:00,37.4,27.5,30.36,East,96,1.0,1.0,67,0.01,,---,0.03,VWS V14.01,2013-03-12 21:39:00,
2013-03-12 15:44:00,37.5,28.3,30.36,SE,136,0.0,3.0,69,0.01,,---,0.03,VWS V14.01,2013-03-12 21:44:00,
2013-03-12 15:49:00,37.8,28.9,30.35,SE,137,0.0,0.0,70,0.01,,---,0.03,VWS V14.01,2013-03-12 21:49:00,
2013-03-12 15:54:00,38.2,27.9,30.35,SSE,157,1.0,1.0,66,0.01,,---,0.03,VWS V14.01,2013-03-12 21:54:00,
2013-03-12 15:59:00,38.5,28.5,30.35,SSE,159,2.0,2.0,67,0.01,,---,0.03,VWS V14.01,2013-03-12 21:59:00,
2013-03-12 16:04:00,38.6,28.2,30.35,West,269,1.0,1.0,66,0.01,,---,0.03,VWS V14.01,2013-03-12 22:04:00,
2013-03-12 16:09:00,39.0,29.0,30.35,West,268,1.0,1.0,67,0.01,,---,0.03,VWS V14.01,2013-03-12 22:09:00,
2013-03-12 16:14:00,39.6,28.8,30.35,West,268,0.0,0.0,65,0.01,,---,0.03,VWS V14.01,2013-03-12 22:14:00,
2013-03-12 16:19:00,39.7,28.5,30.35,West,269,0.0,1.0,64,0.01,,---,0.03,VWS V14.01,2013-03-12 22:19:00,
2013-03-12 16:24:00,39.9,28.7,30.35,West,269,0.0,0.0,64,0.01,,---,0.03,VWS V14.01,2013-03-12 22:24:00,
2013-03-12 16:29:00,40.1,28.9,30.35,NE,48,0.0,1.0,64,0.01,,---,0.03,VWS V14.01,2013-03-12 22:29:00,
2013-03-12 16:34:00,40.1,28.9,30.35,NE,48,0.0,0.0,64,0.01,,---,0.03,VWS V14.01,2013-03-12 22:34:00,
2013-03-12 16:39:00,40.2,29.4,30.35,NE,49,0.0,0.0,65,0.00,,---,0.03,VWS V14.01,2013-03-12 22:39:00,
2013-03-12 16:44:00,40.5,30.4,30.35,NE,49,0.0,0.0,67,0.00,,---,0.03,VWS V14.01,2013-03-12 22:44:00,
2013-03-12 16:49:00,40.5,29.7,30.35,NE,53,0.0,0.0,65,0.00,,---,0.03,VWS V14.01,2013-03-12 22:49:00,
2013-03-12 16:54:00,40.5,29.3,30.35,NE,52,0.0,0.0,64,0.00,,---,0.03,VWS V14.01,2013-03-12 22:54:00,
2013-03-12 16:59:00,40.5,29.3,30.35,NE,53,0.0,0.0,64,0.00,,---,0.03,VWS V14.01,2013-03-12 22:59:00,
2013-03-12 17:04:00,40.5,29.3,30.35,NE,53,0.0,0.0,64,0.00,,---,0.03,VWS V14.01,2013-03-12 23:04:00,
2013-03-12 17:09:00,40.6,29.4,30.35,NNE,25,4.0,4.0,64,0.00,,---,0.03,VWS V14.01,2013-03-12 23:09:00,
2013-03-12 17:14:00,40.4,29.2,30.35,North,360,0.0,0.0,64,0.00,,---,0.03,VWS V14.01,2013-03-12 23:14:00,
2013-03-12 17:19:00,40.6,29.8,30.35,North,360,0.0,1.0,65,0.00,,---,0.03,VWS V14.01,2013-03-12 23:19:00,
2013-03-12 17:24:00,40.6,29.4,30.36,North,360,2.0,2.0,64,0.00,,---,0.03,VWS V14.01,2013-03-12 23:24:00,
2013-03-12 17:29:00,40.4,29.6,30.36,North,360,0.0,0.0,65,0.01,,---,0.04,VWS V14.01,2013-03-12 23:29:00,
2013-03-12 17:34:00,40.2,29.8,30.35,North,360,0.0,0.0,66,0.01,,---,0.04,VWS V14.01,2013-03-12 23:34:00,
2013-03-12 17:39:00,40.0,29.6,30.35,North,5,2.0,2.0,66,0.01,,---,0.04,VWS V14.01,2013-03-12 23:39:00,
2013-03-12 17:44:00,39.6,29.2,30.35,North,5,0.0,0.0,66,0.01,,---,0.04,VWS V14.01,2013-03-12 23:44:00,
2013-03-12 17:49:00,39.1,29.1,30.35,North,360,0.0,0.0,67,0.01,,---,0.04,VWS V14.01,2013-03-12 23:49:00,
2013-03-12 17:54:00,38.9,29.2,30.35,North,5,0.0,0.0,68,0.01,,---,0.04,VWS V14.01,2013-03-12 23:54:00,
2013-03-12 17:59:00,38.7,29.1,30.35,North,5,0.0,0.0,68,0.01,,---,0.04,VWS V14.01,2013-03-12 23:59:00,
2013-03-12 18:04:00,38.4,29.1,30.35,North,5,0.0,0.0,69,0.01,,---,0.04,VWS V14.01,2013-03-13 00:04:00,
2013-03-12 18:09:00,38.2,29.3,30.35,North,5,0.0,0.0,70,0.01,,---,0.04,VWS V14.01,2013-03-13 00:09:00,
2013-03-12 18:14:00,37.9,29.4,30.35,North,360,0.0,0.0,71,0.01,,---,0.04,VWS V14.01,2013-03-13 00:14:00,
2013-03-12 18:19:00,37.7,29.8,30.35,North,5,0.0,0.0,73,0.01,,---,0.04,VWS V14.01,2013-03-13 00:19:00,
2013-03-12 18:24:00,37.5,30.0,30.35,North,5,0.0,0.0,74,0.01,,---,0.04,VWS V14.01,2013-03-13 00:24:00,
2013-03-12 18:29:00,37.3,29.8,30.36,North,5,0.0,0.0,74,0.00,,---,0.04,VWS V14.01,2013-03-13 00:29:00,
2013-03-12 18:34:00,37.1,29.6,30.35,North,360,0.0,0.0,74,0.00,,---,0.04,VWS V14.01,2013-03-13 00:34:00,
2013-03-12 18:39:00,36.9,29.4,30.36,North,5,0.0,0.0,74,0.00,,---,0.04,VWS V14.01,2013-03-13 00:39:00,
2013-03-12 18:44:00,36.6,29.4,30.36,North,5,0.0,0.0,75,0.00,,---,0.04,VWS V14.01,2013-03-13 00:44:00,
2013-03-12 18:49:00,36.4,29.2,30.36,North,5,0.0,0.0,75,0.00,,---,0.04,VWS V14.01,2013-03-13 00:49:00,
2013-03-12 18:54:00,36.1,29.3,30.36,North,5,0.0,0.0,76,0.00,,---,0.04,VWS V14.01,2013-03-13 00:54:00,
2013-03-12 18:59:00,35.9,29.1,30.36,North,5,0.0,0.0,76,0.00,,---,0.04,VWS V14.01,2013-03-13 00:59:00,
2013-03-12 19:04:00,35.5,29.0,30.36,North,360,0.0,0.0,77,0.00,,---,0.04,VWS V14.01,2013-03-13 01:04:00,
2013-03-12 19:09:00,35.3,28.8,30.36,North,5,0.0,0.0,77,0.00,,---,0.04,VWS V14.01,2013-03-13 01:09:00,
2013-03-12 19:14:00,35.1,28.9,30.36,North,360,0.0,0.0,78,0.00,,---,0.04,VWS V14.01,2013-03-13 01:14:00,
2013-03-12 19:19:00,34.9,28.8,30.37,North,5,0.0,0.0,78,0.01,,---,0.05,VWS V14.01,2013-03-13 01:19:00,
2013-03-12 19:24:00,34.7,28.9,30.37,North,360,0.0,0.0,79,0.01,,---,0.05,VWS V14.01,2013-03-13 01:24:00,
2013-03-12 19:29:00,34.4,28.6,30.37,North,5,0.0,0.0,79,0.01,,---,0.05,VWS V14.01,2013-03-13 01:29:00,
2013-03-12 19:34:00,34.4,28.9,30.37,North,5,0.0,0.0,80,0.01,,---,0.05,VWS V14.01,2013-03-13 01:34:00,
2013-03-12 19:39:00,34.3,28.8,30.37,North,5,0.0,0.0,80,0.01,,---,0.05,VWS V14.01,2013-03-13 01:39:00,
2013-03-12 19:44:00,34.1,28.9,30.37,North,5,0.0,0.0,81,0.01,,---,0.05,VWS V14.01,2013-03-13 01:44:00,
2013-03-12 19:49:00,33.8,28.6,30.37,North,5,0.0,0.0,81,0.01,,---,0.05,VWS V14.01,2013-03-13 01:49:00,
2013-03-12 19:54:00,33.5,28.3,30.37,North,360,0.0,0.0,81,0.01,,---,0.05,VWS V14.01,2013-03-13 01:54:00,
2013-03-12 19:59:00,33.4,28.5,30.37,North,5,0.0,0.0,82,0.01,,---,0.05,VWS V14.01,2013-03-13 01:59:00,
2013-03-12 20:04:00,33.2,28.3,30.37,North,5,0.0,0.0,82,0.01,,---,0.05,VWS V14.01,2013-03-13 02:04:00,
2013-03-12 20:09:00,33.0,28.4,30.37,North,5,0.0,0.0,83,0.01,,---,0.05,VWS V14.01,2013-03-13 02:09:00,
2013-03-12 20:14:00,32.9,28.3,30.37,North,360,0.0,0.0,83,0.01,,---,0.05,VWS V14.01,2013-03-13 02:14:00,
2013-03-12 20:19:00,32.8,28.5,30.37,North,5,0.0,0.0,84,0.00,,---,0.05,VWS V14.01,2013-03-13 02:19:00,
2013-03-12 20:24:00,32.7,28.4,30.37,North,5,0.0,0.0,84,0.00,,---,0.05,VWS V14.01,2013-03-13 02:24:00,
2013-03-12 20:29:00,32.6,28.3,30.37,North,360,0.0,0.0,84,0.00,,---,0.05,VWS V14.01,2013-03-13 02:29:00,
2013-03-12 20:34:00,32.5,28.2,30.37,North,360,0.0,0.0,84,0.00,,---,0.05,VWS V14.01,2013-03-13 02:34:00,
2013-03-12 20:39:00,32.3,28.3,30.36,North,360,0.0,0.0,85,0.00,,---,0.05,VWS V14.01,2013-03-13 02:39:00,
2013-03-12 20:44:00,32.3,28.3,30.37,North,5,0.0,0.0,85,0.00,,---,0.05,VWS V14.01,2013-03-13 02:44:00,
2013-03-12 20:49:00,32.2,28.2,30.36,North,5,0.0,0.0,85,0.00,,---,0.05,VWS V14.01,2013-03-13 02:49:00,
2013-03-12 20:54:00,32.2,28.5,30.36,North,5,0.0,0.0,86,0.00,,---,0.05,VWS V14.01,2013-03-13 02:54:00,
2013-03-12 20:59:00,32.2,28.5,30.36,North,360,0.0,0.0,86,0.00,,---,0.05,VWS V14.01,2013-03-13 02:59:00,
2013-03-12 21:04:00,32.2,28.5,30.35,North,5,0.0,0.0,86,0.00,,---,0.05,VWS V14.01,2013-03-13 03:04:00,
2013-03-12 21:09:00,32.1,28.4,30.35,North,5,0.0,0.0,86,0.00,,---,0.05,VWS V14.01,2013-03-13 03:09:00,
2013-03-12 21:14:00,32.0,28.3,30.35,North,5,0.0,0.0,86,0.00,,---,0.05,VWS V14.01,2013-03-13 03:14:00,
2013-03-12 21:19:00,31.9,28.2,30.35,North,5,0.0,0.0,86,0.00,,---,0.05,VWS V14.01,2013-03-13 03:19:00,
2013-03-12 21:24:00,31.9,28.2,30.35,North,5,0.0,0.0,86,0.00,,---,0.05,VWS V14.01,2013-03-13 03:24:00,
2013-03-12 21:29:00,31.7,28.0,30.36,North,5,0.0,0.0,86,0.00,,---,0.05,VWS V14.01,2013-03-13 03:29:00,
2013-03-12 21:34:00,31.7,28.3,30.36,North,360,0.0,0.0,87,0.00,,---,0.05,VWS V14.01,2013-03-13 03:34:00,
2013-03-12 21:39:00,31.6,28.2,30.36,North,5,0.0,0.0,87,0.00,,---,0.05,VWS V14.01,2013-03-13 03:39:00,
2013-03-12 21:44:00,31.5,28.1,30.36,North,5,0.0,0.0,87,0.00,,---,0.05,VWS V14.01,2013-03-13 03:44:00,
2013-03-12 21:49:00,31.5,28.1,30.36,North,5,0.0,0.0,87,0.00,,---,0.05,VWS V14.01,2013-03-13 03:49:00,
2013-03-12 21:54:00,31.5,28.1,30.36,North,5,0.0,0.0,87,0.00,,---,0.05,VWS V14.01,2013-03-13 03:54:00,
2013-03-12 21:59:00,31.5,28.4,30.37,North,360,0.0,0.0,88,0.00,,---,0.05,VWS V14.01,2013-03-13 03:59:00,
2013-03-12 22:00:00,31.5,28.4,30.37,North,5,0.0,0.0,88,0.00,,---,0.05,VWS V14.01,2013-03-13 04:00:00,
2013-03-12 22:05:00,31.5,28.1,30.37,North,5,0.0,0.0,87,0.00,,---,0.05,VWS V14.01,2013-03-13 04:05:00,
2013-03-12 22:10:00,31.4,28.3,30.37,North,360,0.0,0.0,88,0.00,,---,0.05,VWS V14.01,2013-03-13 04:10:00,
2013-03-12 22:15:00,31.4,28.3,30.38,North,5,0.0,0.0,88,0.00,,---,0.05,VWS V14.01,2013-03-13 04:15:00,
2013-03-12 22:20:00,31.3,27.9,30.38,North,5,0.0,0.0,87,0.00,,---,0.05,VWS V14.01,2013-03-13 04:20:00,
2013-03-12 22:25:00,31.2,28.1,30.38,North,5,0.0,0.0,88,0.00,,---,0.05,VWS V14.01,2013-03-13 04:25:00,
2013-03-12 22:30:00,31.1,28.0,30.38,North,5,0.0,0.0,88,0.00,,---,0.05,VWS V14.01,2013-03-13 04:30:00,
2013-03-12 22:35:00,31.0,27.9,30.38,North,360,0.0,0.0,88,0.00,,---,0.05,VWS V14.01,2013-03-13 04:35:00,
2013-03-12 22:40:00,30.9,27.8,30.38,North,360,0.0,0.0,88,0.00,,---,0.05,VWS V14.01,2013-03-13 04:40:00,
2013-03-12 22:45:00,30.9,27.8,30.38,North,5,0.0,0.0,88,0.00,,---,0.05,VWS V14.01,2013-03-13 04:45:00,
2013-03-12 22:50:00,30.8,27.7,30.38,North,360,0.0,0.0,88,0.00,,---,0.05,VWS V14.01,2013-03-13 04:50:00,
2013-03-12 22:55:00,30.8,27.7,30.38,North,360,0.0,0.0,88,0.00,,---,0.05,VWS V14.01,2013-03-13 04:55:00,
2013-03-12 23:00:00,30.8,28.0,30.39,North,5,0.0,0.0,89,0.00,,---,0.05,VWS V14.01,2013-03-13 05:00:00,
2013-03-12 23:05:00,30.8,27.7,30.39,North,5,0.0,0.0,88,0.00,,---,0.05,VWS V14.01,2013-03-13 05:05:00,
2013-03-12 23:10:00,30.9,27.8,30.38,North,5,0.0,0.0,88,0.00,,---,0.05,VWS V14.01,2013-03-13 05:10:00,
2013-03-12 23:15:00,30.8,27.4,30.39,North,360,0.0,0.0,87,0.00,,---,0.05,VWS V14.01,2013-03-13 05:15:00,
2013-03-12 23:20:00,30.8,27.4,30.40,North,5,0.0,0.0,87,0.00,,---,0.05,VWS V14.01,2013-03-13 05:20:00,
2013-03-12 23:25:00,30.7,27.3,30.40,North,5,0.0,0.0,87,0.00,,---,0.05,VWS V14.01,2013-03-13 05:25:00,
2013-03-12 23:30:00,30.7,27.3,30.40,North,5,0.0,0.0,87,0.00,,---,0.05,VWS V14.01,2013-03-13 05:30:00,
2013-03-12 23:35:00,30.6,26.9,30.39,North,5,0.0,0.0,86,0.01,,---,0.06,VWS V14.01,2013-03-13 05:35:00,
2013-03-12 23:40:00,30.5,26.8,30.39,North,5,0.0,0.0,86,0.01,,---,0.06,VWS V14.01,2013-03-13 05:40:00,
2013-03-12 23:45:00,30.5,26.8,30.40,North,5,0.0,0.0,86,0.01,,---,0.06,VWS V14.01,2013-03-13 05:45:00,
2013-03-12 23:50:00,30.3,26.6,30.40,North,5,0.0,0.0,86,0.01,,---,0.06,VWS V14.01,2013-03-13 05:50:00,
2013-03-12 23:55:00,30.2,26.5,30.40,North,360,0.0,0.0,86,0.01,,---,0.06,VWS V14.01,2013-03-13 05:55:00,